createdAt,value
2019-04-29T00:00:08.421Z,7.17
2019-04-29T00:02:38.826Z,7.92
2019-04-29T00:05:09.550Z,8.30
2019-04-29T00:07:40.090Z,11.57
2019-04-29T00:10:12.073Z,9.13
2019-04-29T00:12:42.502Z,12.30
2019-04-29T00:15:30.060Z,10.18
2019-04-29T00:18:03.537Z,12.63
2019-04-29T00:20:38.524Z,11.12
2019-04-29T00:23:09.088Z,11.40
2019-04-29T00:25:41.532Z,13.43
2019-04-29T00:28:12.111Z,12.13
2019-04-29T00:30:42.666Z,12.35
2019-04-29T00:33:15.254Z,14.73
2019-04-29T00:35:46.501Z,15.40
2019-04-29T00:38:36.929Z,13.43
2019-04-29T00:41:25.039Z,13.78
2019-04-29T00:43:57.033Z,15.28
2019-04-29T00:46:28.334Z,14.95
2019-04-29T00:49:00.066Z,14.15
2019-04-29T00:51:30.517Z,15.13
2019-04-29T00:54:02.572Z,13.58
2019-04-29T00:56:33.033Z,16.17
2019-04-29T00:59:04.807Z,14.23
2019-04-29T01:01:35.187Z,15.10
2019-04-29T01:04:05.839Z,13.83
2019-04-29T01:06:36.331Z,15.72
2019-04-29T01:09:10.881Z,20.05
2019-04-29T01:11:41.319Z,16.35
2019-04-29T01:14:11.712Z,14.95
2019-04-29T01:16:43.691Z,13.83
2019-04-29T01:19:14.108Z,13.90
2019-04-29T01:21:44.533Z,14.10
2019-04-29T01:24:14.914Z,14.45
2019-04-29T01:26:46.902Z,14.33
2019-04-29T01:29:18.850Z,14.70
2019-04-29T01:31:49.339Z,13.88
2019-04-29T01:34:21.450Z,15.63
2019-04-29T01:36:51.929Z,16.25
2019-04-29T01:39:24.023Z,14.13
2019-04-29T01:41:56.111Z,14.15
2019-04-29T01:44:28.083Z,13.83
2019-04-29T01:46:58.578Z,17.05
2019-04-29T01:49:28.955Z,14.83
2019-04-29T01:51:59.368Z,14.47
2019-04-29T01:54:29.855Z,15.30
2019-04-29T01:57:00.255Z,14.53
2019-04-29T01:59:30.717Z,13.75
2019-04-29T02:02:01.141Z,14.33
2019-04-29T02:04:31.595Z,15.00
2019-04-29T02:07:01.995Z,13.38
2019-04-29T02:09:33.963Z,13.03
2019-04-29T02:12:07.578Z,14.38
2019-04-29T02:14:37.944Z,15.05
2019-04-29T02:17:08.361Z,14.18
2019-04-29T02:19:38.750Z,14.63
2019-04-29T02:22:10.814Z,14.80
2019-04-29T02:24:42.766Z,16.23
2019-04-29T02:27:14.024Z,13.70
2019-04-29T02:29:44.412Z,16.80
2019-04-29T02:32:15.068Z,14.23
2019-04-29T02:34:47.029Z,15.48
2019-04-29T02:37:19.013Z,16.85
2019-04-29T02:39:54.026Z,17.00
2019-04-29T02:42:43.603Z,14.40
2019-04-29T02:45:19.054Z,14.33
2019-04-29T02:47:49.471Z,14.33
2019-04-29T02:50:19.970Z,15.90
2019-04-29T02:52:50.738Z,16.67
2019-04-29T02:55:22.815Z,19.10
2019-04-29T02:57:55.219Z,16.45
2019-04-29T03:00:30.205Z,17.27
2019-04-29T03:03:11.578Z,17.32
2019-04-29T03:05:43.531Z,16.73
2019-04-29T03:08:13.961Z,15.23
2019-04-29T03:10:44.382Z,14.58
2019-04-29T03:13:15.166Z,14.30
2019-04-29T03:15:46.117Z,15.85
2019-04-29T03:18:17.152Z,16.25
2019-04-29T03:20:58.328Z,19.25
2019-04-29T03:23:29.039Z,16.32
2019-04-29T03:26:00.898Z,17.40
2019-04-29T03:28:31.426Z,20.32
2019-04-29T03:31:03.008Z,17.48
2019-04-29T03:33:36.897Z,17.60
2019-04-29T03:36:07.467Z,15.28
2019-04-29T03:38:37.912Z,15.93
2019-04-29T03:41:08.522Z,15.83
2019-04-29T03:43:40.574Z,16.10
2019-04-29T03:46:10.954Z,13.50
2019-04-29T03:48:41.370Z,16.25
2019-04-29T03:51:11.830Z,17.70
2019-04-29T03:53:42.347Z,17.10
2019-04-29T03:56:12.737Z,15.95
2019-04-29T03:58:43.182Z,16.55
2019-04-29T04:01:15.284Z,16.30
2019-04-29T04:03:56.469Z,15.98
2019-04-29T04:06:31.227Z,15.58
2019-04-29T04:09:15.329Z,15.72
2019-04-29T04:11:45.705Z,18.80
2019-04-29T04:14:17.790Z,18.55
2019-04-29T04:16:57.102Z,17.10
2019-04-29T04:19:30.082Z,15.58
2019-04-29T04:22:01.976Z,19.07
2019-04-29T04:24:32.562Z,18.52
2019-04-29T04:27:02.962Z,14.80
2019-04-29T04:29:33.452Z,16.70
2019-04-29T04:32:03.880Z,16.52
2019-04-29T04:34:34.305Z,15.88
2019-04-29T04:37:04.756Z,16.67
2019-04-29T04:39:36.801Z,15.43
2019-04-29T04:42:07.262Z,16.05
2019-04-29T04:44:49.947Z,16.82
2019-04-29T04:47:20.648Z,15.60
2019-04-29T04:49:52.822Z,16.32
2019-04-29T04:52:23.294Z,14.50
2019-04-29T04:54:55.594Z,16.55
2019-04-29T04:57:26.159Z,17.85
2019-04-29T04:59:56.586Z,15.78
2019-04-29T05:02:28.613Z,13.95
2019-04-29T05:05:01.914Z,15.53
2019-04-29T05:07:32.355Z,16.32
2019-04-29T05:10:02.789Z,14.45
2019-04-29T05:12:33.308Z,15.70
2019-04-29T05:15:03.943Z,14.85
2019-04-29T05:17:34.355Z,20.25
2019-04-29T05:20:06.488Z,13.05
2019-04-29T05:22:36.998Z,14.87
2019-04-29T05:25:07.470Z,16.75
2019-04-29T05:27:37.929Z,14.98
2019-04-29T05:30:08.686Z,17.80
2019-04-29T05:32:40.707Z,15.93
2019-04-29T05:35:14.152Z,17.98
2019-04-29T05:37:46.240Z,16.25
2019-04-29T05:40:18.318Z,16.52
2019-04-29T05:42:52.549Z,17.50
2019-04-29T05:45:22.433Z,17.60
2019-04-29T05:48:09.643Z,19.67
2019-04-29T05:50:53.871Z,19.70
2019-04-29T05:53:25.948Z,16.27
2019-04-29T05:55:56.369Z,17.00
2019-04-29T05:58:28.263Z,17.23
2019-04-29T06:01:00.239Z,16.62
2019-04-29T06:03:33.531Z,15.13
2019-04-29T06:06:03.010Z,15.78
2019-04-29T06:08:34.580Z,15.72
2019-04-29T06:11:05.547Z,16.32
2019-04-29T06:13:36.626Z,16.80
2019-04-29T06:16:07.232Z,18.87
2019-04-29T06:18:40.755Z,16.80
2019-04-29T06:21:09.904Z,15.15
2019-04-29T06:23:41.963Z,14.68
2019-04-29T06:26:12.453Z,15.32
2019-04-29T06:28:44.465Z,18.25
2019-04-29T06:31:15.065Z,16.12
2019-04-29T06:33:46.291Z,13.68
2019-04-29T06:36:16.710Z,16.70
2019-04-29T06:38:47.128Z,15.00
2019-04-29T06:41:17.636Z,14.83
2019-04-29T06:43:52.391Z,13.13
2019-04-29T06:46:21.694Z,12.98
2019-04-29T06:48:52.091Z,14.00
2019-04-29T06:51:22.583Z,14.20
2019-04-29T06:53:52.987Z,12.93
2019-04-29T06:56:23.434Z,13.68
2019-04-29T06:58:53.923Z,15.18
2019-04-29T07:01:25.191Z,14.28
2019-04-29T07:03:59.448Z,17.02
2019-04-29T07:06:28.593Z,16.27
2019-04-29T07:08:59.265Z,12.85
2019-04-29T07:11:31.896Z,12.58
2019-04-29T07:14:01.765Z,15.40
2019-04-29T07:16:33.681Z,16.60
2019-04-29T07:19:04.209Z,13.75
2019-04-29T07:21:34.611Z,12.35
2019-04-29T07:24:05.318Z,11.03
2019-04-29T07:26:35.694Z,13.00
2019-04-29T07:29:07.539Z,12.93
2019-04-29T07:31:38.119Z,12.53
2019-04-29T07:34:08.673Z,10.08
2019-04-29T07:36:39.196Z,12.40
2019-04-29T07:39:09.689Z,11.55
2019-04-29T07:41:40.270Z,12.78
2019-04-29T07:44:13.758Z,12.35
2019-04-29T07:46:56.841Z,12.65
2019-04-29T07:49:19.529Z,11.25
2019-04-29T07:51:50.027Z,13.05
2019-04-29T07:54:21.955Z,11.40
2019-04-29T07:56:52.508Z,12.75
2019-04-29T07:59:24.375Z,10.90
2019-04-29T08:01:59.831Z,9.40
2019-04-29T08:04:29.002Z,9.95
2019-04-29T08:06:59.541Z,9.73
2019-04-29T08:09:31.324Z,8.60
2019-04-29T08:12:02.545Z,10.08
2019-04-29T08:14:33.524Z,11.05
2019-04-29T08:17:03.952Z,11.95
2019-04-29T08:19:35.918Z,8.63
2019-04-29T08:22:06.338Z,10.28
2019-04-29T08:24:37.511Z,9.83
2019-04-29T08:27:08.100Z,10.82
2019-04-29T08:29:38.790Z,11.03
2019-04-29T08:32:10.960Z,11.28
2019-04-29T08:34:43.006Z,10.82
2019-04-29T08:37:13.487Z,8.48
2019-04-29T08:39:43.963Z,9.30
2019-04-29T08:42:15.973Z,8.18
2019-04-29T08:45:04.247Z,12.13
2019-04-29T08:47:41.995Z,8.13
2019-04-29T08:50:14.081Z,9.53
2019-04-29T08:52:44.633Z,6.50
2019-04-29T08:55:15.043Z,10.23
2019-04-29T08:57:45.457Z,8.98
2019-04-29T09:00:19.128Z,5.85
2019-04-29T09:02:49.583Z,8.18
2019-04-29T09:05:20.876Z,5.25
2019-04-29T09:07:52.468Z,6.35
2019-04-29T09:10:23.455Z,7.25
2019-04-29T09:12:53.894Z,6.08
2019-04-29T09:15:24.282Z,4.20
2019-04-29T09:17:54.649Z,6.30
2019-04-29T09:20:25.181Z,6.08
2019-04-29T09:23:09.442Z,4.20
2019-04-29T09:26:02.917Z,4.42
2019-04-29T09:28:30.508Z,6.78
2019-04-29T09:31:00.917Z,5.42
2019-04-29T09:33:31.391Z,4.25
2019-04-29T09:36:01.803Z,3.83
2019-04-29T09:38:32.507Z,3.75
2019-04-29T09:41:07.349Z,3.95
2019-04-29T09:43:39.358Z,4.28
2019-04-29T09:46:11.806Z,4.45
2019-04-29T09:48:42.197Z,4.50
2019-04-29T09:51:17.578Z,4.55
2019-04-29T09:53:44.852Z,3.75
2019-04-29T09:56:15.323Z,3.92
2019-04-29T09:58:45.709Z,3.75
2019-04-29T10:01:19.116Z,3.92
2019-04-29T10:03:51.518Z,3.98
2019-04-29T10:06:23.773Z,4.35
2019-04-29T10:08:54.250Z,3.95
2019-04-29T10:11:24.667Z,4.67
2019-04-29T10:13:55.226Z,3.75
2019-04-29T10:16:27.261Z,4.03
2019-04-29T10:19:00.714Z,4.60
2019-04-29T10:21:31.308Z,4.45
2019-04-29T10:24:01.719Z,5.25
2019-04-29T10:26:32.076Z,3.95
2019-04-29T10:29:06.810Z,3.90
2019-04-29T10:31:37.253Z,4.70
2019-04-29T10:34:07.683Z,4.35
2019-04-29T10:36:39.585Z,4.08
2019-04-29T10:39:29.453Z,4.35
2019-04-29T10:42:01.631Z,4.03
2019-04-29T10:44:50.118Z,3.30
2019-04-29T10:47:22.084Z,4.72
2019-04-29T10:50:00.062Z,4.60
2019-04-29T10:52:34.454Z,4.17
2019-04-29T10:55:04.697Z,4.58
2019-04-29T10:57:35.266Z,3.98
2019-04-29T11:00:11.148Z,4.40
2019-04-29T11:02:44.822Z,4.55
2019-04-29T11:05:28.866Z,4.35
2019-04-29T11:08:02.635Z,4.90
2019-04-29T11:10:34.247Z,4.97
2019-04-29T11:13:05.363Z,3.87
2019-04-29T11:15:37.075Z,5.17
2019-04-29T11:18:08.030Z,4.60
2019-04-29T11:20:38.443Z,5.78
2019-04-29T11:23:22.327Z,4.87
2019-04-29T11:26:09.711Z,4.75
2019-04-29T11:28:40.317Z,4.92
2019-04-29T11:31:14.001Z,4.85
2019-04-29T11:33:47.302Z,4.90
2019-04-29T11:36:25.288Z,4.90
2019-04-29T11:38:55.741Z,4.78
2019-04-29T11:41:28.640Z,6.87
2019-04-29T11:43:59.036Z,5.03
2019-04-29T11:46:29.632Z,4.97
2019-04-29T11:49:01.693Z,5.12
2019-04-29T11:51:41.687Z,5.75
2019-04-29T11:54:08.191Z,4.92
2019-04-29T11:56:39.956Z,4.95
2019-04-29T11:59:12.032Z,5.45
2019-04-29T12:01:51.259Z,5.80
2019-04-29T12:04:28.542Z,6.15
2019-04-29T12:06:58.825Z,5.60
2019-04-29T12:09:30.495Z,4.80
2019-04-29T12:12:01.753Z,5.15
2019-04-29T12:14:37.872Z,5.00
2019-04-29T12:17:14.204Z,6.55
2019-04-29T12:19:50.167Z,5.22
2019-04-29T12:22:30.102Z,5.47
2019-04-29T12:24:52.703Z,4.67
2019-04-29T12:27:23.283Z,5.62
2019-04-29T12:29:57.021Z,5.50
2019-04-29T12:32:30.269Z,5.00
2019-04-29T12:35:07.994Z,5.10
2019-04-29T12:37:40.106Z,5.28
2019-04-29T12:40:21.598Z,7.17
2019-04-29T12:42:56.487Z,8.93
2019-04-29T12:45:28.454Z,5.90
2019-04-29T12:47:59.265Z,5.83
2019-04-29T12:50:29.759Z,7.30
2019-04-29T12:53:00.241Z,7.60
2019-04-29T12:55:44.323Z,5.87
2019-04-29T12:58:07.531Z,5.83
2019-04-29T13:00:47.493Z,6.58
2019-04-29T13:03:24.930Z,8.50
2019-04-29T13:06:02.551Z,9.13
2019-04-29T13:08:33.599Z,6.95
2019-04-29T13:11:05.758Z,6.45
2019-04-29T13:13:37.705Z,6.58
2019-04-29T13:16:26.896Z,6.70
2019-04-29T13:19:12.331Z,6.28
2019-04-29T13:21:39.508Z,6.12
2019-04-29T13:24:23.104Z,6.67
2019-04-29T13:26:43.188Z,9.33
2019-04-29T13:29:26.759Z,6.25
2019-04-29T13:31:47.392Z,6.83
2019-04-29T13:34:24.024Z,6.08
2019-04-29T13:37:06.510Z,6.80
2019-04-29T13:39:38.397Z,9.25
2019-04-29T13:42:02.578Z,6.65
2019-04-29T13:44:28.705Z,5.78
2019-04-29T13:47:17.267Z,9.75
2019-04-29T13:49:52.038Z,8.53
2019-04-29T13:52:22.599Z,5.72
2019-04-29T13:54:53.071Z,5.78
2019-04-29T13:57:23.451Z,6.03
2019-04-29T14:00:13.972Z,7.90
2019-04-29T14:02:59.170Z,5.20
2019-04-29T14:05:32.436Z,5.92
2019-04-29T14:08:01.422Z,5.08
2019-04-29T14:10:31.860Z,6.35
2019-04-29T14:13:10.882Z,6.03
2019-04-29T14:15:38.128Z,6.40
2019-04-29T14:18:11.067Z,6.78
2019-04-29T14:20:38.834Z,7.22
2019-04-29T14:23:09.228Z,5.37
2019-04-29T14:25:39.702Z,5.60
2019-04-29T14:28:11.838Z,4.95
2019-04-29T14:30:43.590Z,5.12
2019-04-29T14:33:19.218Z,4.80
2019-04-29T14:36:00.080Z,4.97
2019-04-29T14:38:30.598Z,4.78
2019-04-29T14:41:01.298Z,5.35
2019-04-29T14:43:43.943Z,5.12
2019-04-29T14:46:24.983Z,6.85
2019-04-29T14:49:06.306Z,5.15
2019-04-29T14:51:37.963Z,6.20
2019-04-29T14:54:08.583Z,5.53
2019-04-29T14:56:39.103Z,20.92
2019-04-29T14:59:09.555Z,4.90
2019-04-29T15:01:41.621Z,5.22
2019-04-29T15:04:18.545Z,5.55
2019-04-29T15:06:46.049Z,5.20
2019-04-29T15:09:18.179Z,6.00
2019-04-29T15:11:58.790Z,5.55
2019-04-29T15:14:41.669Z,6.08
2019-04-29T15:17:19.716Z,5.72
2019-04-29T15:19:56.091Z,5.35
2019-04-29T15:22:31.290Z,4.55
2019-04-29T15:25:03.297Z,5.55
2019-04-29T15:27:33.743Z,5.12
2019-04-29T15:30:07.190Z,7.80
2019-04-29T15:32:37.739Z,6.15
2019-04-29T15:35:08.412Z,4.15
2019-04-29T15:37:38.861Z,4.22
2019-04-29T15:40:09.833Z,3.37
2019-04-29T15:42:43.206Z,3.47
2019-04-29T15:45:12.843Z,3.67
2019-04-29T15:47:45.702Z,3.20
2019-04-29T15:50:19.302Z,3.58
2019-04-29T15:52:49.251Z,6.45
2019-04-29T15:55:19.717Z,3.10
2019-04-29T15:57:51.890Z,3.30
2019-04-29T16:00:23.612Z,3.47
2019-04-29T16:02:54.833Z,2.83
2019-04-29T16:06:04.433Z,4.97
2019-04-29T16:08:33.396Z,3.05
2019-04-29T16:11:22.028Z,4.30
2019-04-29T16:14:08.347Z,2.83
2019-04-29T16:16:26.019Z,4.15
2019-04-29T16:19:07.295Z,5.03
2019-04-29T16:21:32.355Z,2.80
2019-04-29T16:24:00.862Z,4.08
2019-04-29T16:26:32.858Z,2.80
2019-04-29T16:29:12.440Z,2.42
2019-04-29T16:31:35.537Z,6.72
2019-04-29T16:34:06.265Z,2.67
2019-04-29T16:36:37.777Z,5.17
2019-04-29T16:39:08.357Z,5.50
2019-04-29T16:41:51.005Z,3.52
2019-04-29T16:44:34.689Z,5.30
2019-04-29T16:46:52.213Z,3.85
2019-04-29T16:49:22.987Z,2.80
2019-04-29T16:51:55.949Z,2.95
2019-04-29T16:54:28.352Z,5.50
2019-04-29T16:56:58.566Z,3.45
2019-04-29T16:59:30.447Z,4.72
2019-04-29T17:02:00.907Z,2.85
2019-04-29T17:04:33.045Z,5.17
2019-04-29T17:07:13.892Z,4.72
2019-04-29T17:09:48.285Z,3.08
2019-04-29T17:12:18.810Z,4.62
2019-04-29T17:15:03.976Z,6.97
2019-04-29T17:17:28.969Z,3.45
2019-04-29T17:19:55.242Z,3.25
2019-04-29T17:22:27.460Z,2.60
2019-04-29T17:24:58.185Z,2.87
2019-04-29T17:27:35.111Z,3.92
2019-04-29T17:30:08.789Z,3.12
2019-04-29T17:32:47.064Z,5.90
2019-04-29T17:35:21.306Z,4.30
2019-04-29T17:37:48.137Z,3.75
2019-04-29T17:40:20.043Z,5.90
2019-04-29T17:42:51.995Z,4.97
2019-04-29T17:45:30.619Z,5.00
2019-04-29T17:48:01.958Z,4.83
2019-04-29T17:50:34.060Z,4.70
2019-04-29T17:53:07.762Z,3.60
2019-04-29T17:55:40.990Z,4.75
2019-04-29T17:58:19.467Z,3.87
2019-04-29T18:00:56.192Z,3.87
2019-04-29T18:03:34.783Z,5.00
2019-04-29T18:06:07.661Z,4.60
2019-04-29T18:08:42.574Z,5.50
2019-04-29T18:11:14.972Z,4.80
2019-04-29T18:13:45.944Z,5.08
2019-04-29T18:16:25.910Z,4.30
2019-04-29T18:18:58.558Z,5.62
2019-04-29T18:21:48.322Z,4.85
2019-04-29T18:24:25.346Z,7.37
2019-04-29T18:26:57.446Z,4.72
2019-04-29T18:29:27.909Z,5.37
2019-04-29T18:32:00.480Z,5.85
2019-04-29T18:34:33.674Z,5.10
2019-04-29T18:37:06.271Z,6.83
2019-04-29T18:39:36.626Z,5.37
2019-04-29T18:42:08.686Z,4.92
2019-04-29T18:44:53.873Z,6.37
2019-04-29T18:47:21.900Z,6.22
2019-04-29T18:49:45.423Z,5.25
2019-04-29T18:52:25.660Z,6.67
2019-04-29T18:54:49.113Z,5.70
2019-04-29T18:57:27.853Z,6.00
2019-04-29T18:59:51.607Z,5.80
2019-04-29T19:02:21.977Z,4.90
2019-04-29T19:04:57.044Z,6.40
2019-04-29T19:07:27.418Z,5.67
2019-04-29T19:09:59.329Z,5.55
2019-04-29T19:12:29.693Z,4.92
2019-04-29T19:15:05.145Z,6.50
2019-04-29T19:17:36.751Z,6.12
2019-04-29T19:20:13.115Z,6.45
2019-04-29T19:22:39.968Z,6.28
2019-04-29T19:25:12.107Z,5.60
2019-04-29T19:27:45.453Z,5.25
2019-04-29T19:30:21.028Z,5.42
2019-04-29T19:32:49.146Z,5.55
2019-04-29T19:35:19.712Z,7.37
2019-04-29T19:37:50.141Z,6.37
2019-04-29T19:40:25.753Z,5.97
2019-04-29T19:42:56.276Z,7.70
2019-04-29T19:45:28.212Z,5.55
2019-04-29T19:47:58.732Z,6.30
2019-04-29T19:50:30.908Z,10.38
2019-04-29T19:53:05.021Z,8.73
2019-04-29T19:55:41.833Z,7.45
2019-04-29T19:58:07.175Z,7.22
2019-04-29T20:00:38.971Z,7.65
2019-04-29T20:03:22.898Z,6.53
2019-04-29T20:05:46.416Z,6.42
2019-04-29T20:08:37.705Z,8.15
2019-04-29T20:10:52.468Z,4.87
2019-04-29T20:13:30.470Z,6.42
2019-04-29T20:16:09.938Z,7.95
2019-04-29T20:19:00.964Z,4.25
2019-04-29T20:21:28.285Z,9.38
2019-04-29T20:23:56.299Z,5.87
2019-04-29T20:26:29.603Z,4.55
2019-04-29T20:28:59.091Z,4.42
2019-04-29T20:31:29.768Z,5.47
2019-04-29T20:34:01.621Z,5.42
2019-04-29T20:36:40.938Z,6.67
2019-04-29T20:39:06.900Z,6.22
2019-04-29T20:41:41.961Z,5.60
2019-04-29T20:44:10.397Z,4.03
2019-04-29T20:46:45.639Z,5.22
2019-04-29T20:49:13.308Z,6.05
2019-04-29T20:51:50.657Z,6.30
2019-04-29T20:54:19.786Z,3.90
2019-04-29T20:57:02.034Z,4.37
2019-04-29T20:59:25.866Z,6.70
2019-04-29T21:02:11.112Z,3.67
2019-04-29T21:04:45.181Z,4.92
2019-04-29T21:07:07.015Z,3.77
2019-04-29T21:09:37.662Z,4.10
2019-04-29T21:12:15.714Z,6.33
2019-04-29T21:14:47.590Z,4.22
2019-04-29T21:17:28.767Z,4.22
2019-04-29T21:19:50.166Z,3.62
2019-04-29T21:22:23.557Z,3.92
2019-04-29T21:24:55.134Z,3.75
2019-04-29T21:27:27.326Z,3.90
2019-04-29T21:29:57.793Z,3.80
2019-04-29T21:32:30.539Z,3.05
2019-04-29T21:35:10.155Z,3.77
2019-04-29T21:37:43.967Z,3.95
2019-04-29T21:40:24.305Z,3.92
2019-04-29T21:42:56.305Z,3.22
2019-04-29T21:45:26.717Z,4.35
2019-04-29T21:47:57.174Z,6.70
2019-04-29T21:50:33.868Z,7.33
2019-04-29T21:53:02.032Z,5.10
2019-04-29T21:55:31.872Z,4.20
2019-04-29T21:58:02.462Z,3.83
2019-04-29T22:00:34.887Z,9.75
2019-04-29T22:03:05.461Z,4.62
2019-04-29T22:05:35.983Z,3.62
2019-04-29T22:08:06.653Z,4.10
2019-04-29T22:10:38.525Z,6.37
2019-04-29T22:13:09.304Z,3.67
2019-04-29T22:15:42.436Z,4.80
2019-04-29T22:18:13.985Z,5.35
2019-04-29T22:20:44.139Z,6.05
2019-04-29T22:23:17.002Z,4.90
2019-04-29T22:25:47.310Z,7.25
2019-04-29T22:28:19.718Z,9.53
2019-04-29T22:30:54.927Z,5.83
2019-04-29T22:33:22.249Z,5.20
2019-04-29T22:35:52.664Z,6.40
2019-04-29T22:38:25.047Z,5.92
2019-04-29T22:40:57.074Z,5.60
2019-04-29T22:43:29.126Z,5.78
2019-04-29T22:45:59.726Z,6.65
2019-04-29T22:48:30.147Z,5.92
2019-04-29T22:51:00.605Z,6.47
2019-04-29T22:53:31.089Z,5.78
2019-04-29T22:56:02.390Z,6.00
2019-04-29T22:58:34.953Z,6.97
2019-04-29T23:01:06.821Z,5.80
2019-04-29T23:03:38.862Z,6.20
2019-04-29T23:06:09.338Z,6.25
2019-04-29T23:08:39.728Z,5.53
2019-04-29T23:11:10.221Z,6.80
2019-04-29T23:13:40.650Z,6.30
2019-04-29T23:16:11.241Z,6.20
2019-04-29T23:18:42.313Z,6.20
2019-04-29T23:21:16.470Z,8.90
2019-04-29T23:23:51.323Z,6.00
2019-04-29T23:26:21.747Z,6.45
2019-04-29T23:28:52.124Z,5.62
2019-04-29T23:31:27.230Z,6.28
2019-04-29T23:33:56.476Z,5.72
2019-04-29T23:36:27.090Z,5.62
2019-04-29T23:38:57.471Z,7.22
2019-04-29T23:41:33.117Z,5.92
2019-04-29T23:44:04.335Z,7.80
2019-04-29T23:46:34.329Z,5.45
2019-04-29T23:49:06.625Z,5.05
2019-04-29T23:51:37.721Z,5.83
2019-04-29T23:54:08.500Z,6.58
2019-04-29T23:56:42.815Z,5.80
2019-04-29T23:59:25.040Z,5.53
